createdAt,value
2019-01-11T00:00:39.066Z,24.53
2019-01-11T00:03:05.905Z,24.33
2019-01-11T00:05:32.749Z,23.47
2019-01-11T00:07:59.585Z,25.17
2019-01-11T00:10:26.426Z,21.43
2019-01-11T00:12:52.960Z,23.43
2019-01-11T00:15:19.803Z,23.97
2019-01-11T00:17:46.643Z,23.10
2019-01-11T00:20:13.196Z,23.80
2019-01-11T00:22:39.715Z,24.60
2019-01-11T00:25:06.554Z,24.63
2019-01-11T00:27:33.093Z,25.10
2019-01-11T00:29:59.628Z,23.93
2019-01-11T00:32:26.157Z,27.50
2019-01-11T00:34:53.406Z,23.67
2019-01-11T00:37:20.149Z,23.67
2019-01-11T00:39:46.681Z,25.90
2019-01-11T00:42:13.530Z,24.43
2019-01-11T00:44:40.059Z,27.20
2019-01-11T00:47:06.903Z,30.77
2019-01-11T00:49:33.435Z,27.80
2019-01-11T00:51:59.971Z,24.37
2019-01-11T00:54:26.811Z,25.80
2019-01-11T00:56:53.345Z,25.33
2019-01-11T00:59:20.189Z,25.40
2019-01-11T01:01:47.030Z,26.50
2019-01-11T01:04:13.564Z,24.23
2019-01-11T01:06:40.363Z,28.97
2019-01-11T01:09:07.255Z,25.33
2019-01-11T01:11:33.783Z,24.10
2019-01-11T01:14:00.623Z,24.33
2019-01-11T01:16:27.168Z,27.70
2019-01-11T01:18:54.000Z,24.33
2019-01-11T01:21:20.841Z,23.50
2019-01-11T01:23:47.686Z,24.80
2019-01-11T01:26:14.529Z,23.00
2019-01-11T01:28:41.366Z,22.90
2019-01-11T01:31:07.901Z,22.27
2019-01-11T01:33:34.435Z,26.33
2019-01-11T01:36:01.285Z,27.50
2019-01-11T01:38:28.103Z,28.83
2019-01-11T01:40:54.665Z,26.63
2019-01-11T01:43:21.187Z,26.07
2019-01-11T01:45:48.029Z,24.77
2019-01-11T01:48:14.870Z,25.33
2019-01-11T01:50:41.711Z,26.60
2019-01-11T01:53:08.248Z,23.87
2019-01-11T01:55:35.093Z,25.70
2019-01-11T01:58:01.622Z,24.80
2019-01-11T02:00:28.469Z,24.13
2019-01-11T02:02:55.004Z,23.70
2019-01-11T02:05:21.839Z,24.80
2019-01-11T02:07:48.681Z,23.80
2019-01-11T02:10:15.222Z,23.93
2019-01-11T02:12:41.752Z,23.03
2019-01-11T02:15:08.594Z,24.03
2019-01-11T02:17:35.142Z,26.03
2019-01-11T02:20:01.584Z,24.47
2019-01-11T02:22:28.503Z,22.80
2019-01-11T02:24:55.344Z,23.07
2019-01-11T02:27:22.189Z,23.17
2019-01-11T02:29:49.031Z,20.53
2019-01-11T02:32:15.562Z,22.20
2019-01-11T02:34:42.404Z,24.13
2019-01-11T02:37:08.937Z,22.73
2019-01-11T02:39:35.793Z,21.83
2019-01-11T02:42:03.544Z,24.30
2019-01-11T02:44:30.080Z,23.33
2019-01-11T02:46:56.615Z,22.43
2019-01-11T02:49:23.147Z,20.77
2019-01-11T02:51:49.704Z,23.93
2019-01-11T02:54:16.522Z,26.97
2019-01-11T02:56:43.058Z,27.87
2019-01-11T02:59:09.593Z,28.67
2019-01-11T03:01:36.131Z,29.13
2019-01-11T03:04:02.873Z,30.60
2019-01-11T03:06:29.813Z,29.27
2019-01-11T03:08:56.346Z,29.37
2019-01-11T03:11:22.881Z,28.10
2019-01-11T03:13:49.417Z,26.60
2019-01-11T03:16:15.948Z,29.90
2019-01-11T03:18:42.492Z,34.50
2019-01-11T03:21:09.028Z,28.80
2019-01-11T03:23:35.858Z,31.53
2019-01-11T03:26:02.681Z,30.67
2019-01-11T03:28:29.238Z,27.70
2019-01-11T03:30:56.078Z,30.00
2019-01-11T03:33:22.625Z,28.63
2019-01-11T03:35:49.456Z,30.50
2019-01-11T03:38:16.007Z,29.50
2019-01-11T03:40:42.524Z,28.47
2019-01-11T03:43:09.064Z,29.47
2019-01-11T03:45:35.607Z,30.20
2019-01-11T03:48:02.444Z,27.47
2019-01-11T03:50:28.966Z,28.13
2019-01-11T03:52:55.504Z,25.43
2019-01-11T03:55:22.361Z,25.73
2019-01-11T03:57:48.877Z,28.97
2019-01-11T04:00:15.723Z,30.17
2019-01-11T04:02:42.560Z,26.83
2019-01-11T04:05:09.402Z,26.37
2019-01-11T04:07:35.942Z,26.83
2019-01-11T04:10:02.471Z,24.03
2019-01-11T04:12:29.314Z,24.63
2019-01-11T04:14:56.157Z,27.53
2019-01-11T04:17:22.996Z,26.73
2019-01-11T04:19:49.531Z,25.57
2019-01-11T04:22:16.373Z,25.20
2019-01-11T04:24:43.217Z,27.73
2019-01-11T04:27:09.753Z,25.77
2019-01-11T04:29:36.283Z,26.67
2019-01-11T04:32:03.128Z,31.57
2019-01-11T04:34:30.487Z,25.90
2019-01-11T04:36:57.422Z,29.93
2019-01-11T04:39:24.264Z,27.87
2019-01-11T04:41:50.806Z,23.47
2019-01-11T04:44:17.338Z,27.30
2019-01-11T04:46:44.186Z,23.30
2019-01-11T04:49:11.020Z,23.17
2019-01-11T04:51:37.558Z,24.77
2019-01-11T04:54:04.087Z,23.50
2019-01-11T04:56:30.936Z,22.07
2019-01-11T04:58:57.770Z,34.03
2019-01-11T05:01:24.613Z,21.70
2019-01-11T05:03:51.459Z,25.20
2019-01-11T05:06:18.296Z,23.47
2019-01-11T05:08:44.910Z,24.17
2019-01-11T05:11:11.673Z,23.80
2019-01-11T05:13:38.217Z,21.57
2019-01-11T05:16:05.047Z,21.20
2019-01-11T05:18:31.601Z,22.97
2019-01-11T05:20:58.116Z,21.60
2019-01-11T05:23:24.956Z,21.80
2019-01-11T05:25:51.799Z,21.40
2019-01-11T05:28:18.332Z,22.30
2019-01-11T05:30:45.175Z,23.13
2019-01-11T05:33:11.710Z,21.23
2019-01-11T05:35:38.552Z,20.80
2019-01-11T05:38:05.085Z,20.03
2019-01-11T05:40:31.621Z,20.97
2019-01-11T05:42:58.461Z,20.93
2019-01-11T05:45:25.000Z,26.20
2019-01-11T05:47:51.532Z,20.17
2019-01-11T05:50:24.046Z,20.20
2019-01-11T05:52:46.442Z,20.43
2019-01-11T05:55:13.599Z,21.43
2019-01-11T05:57:40.434Z,21.20
2019-01-11T06:00:07.275Z,18.37
2019-01-11T06:02:33.823Z,17.53
2019-01-11T06:05:00.802Z,22.07
2019-01-11T06:07:27.493Z,19.93
2019-01-11T06:09:54.334Z,22.10
2019-01-11T06:12:20.870Z,25.03
2019-01-11T06:14:47.407Z,26.37
2019-01-11T06:17:13.940Z,26.60
2019-01-11T06:19:40.781Z,22.13
2019-01-11T06:22:07.315Z,22.27
2019-01-11T06:24:33.851Z,24.03
2019-01-11T06:27:00.384Z,23.17
2019-01-11T06:29:27.225Z,21.43
2019-01-11T06:31:53.763Z,23.17
2019-01-11T06:34:20.298Z,22.77
2019-01-11T06:36:47.135Z,26.87
2019-01-11T06:39:13.673Z,22.93
2019-01-11T06:41:40.204Z,21.80
2019-01-11T06:44:06.753Z,21.97
2019-01-11T06:46:33.275Z,21.97
2019-01-11T06:49:00.116Z,18.50
2019-01-11T06:51:26.961Z,19.43
2019-01-11T06:53:53.817Z,20.97
2019-01-11T06:56:20.332Z,19.30
2019-01-11T06:58:47.179Z,21.17
2019-01-11T07:01:13.709Z,20.23
2019-01-11T07:03:40.556Z,23.00
2019-01-11T07:06:07.086Z,21.10
2019-01-11T07:08:33.927Z,20.70
2019-01-11T07:11:00.776Z,19.43
2019-01-11T07:13:27.306Z,23.80
2019-01-11T07:15:54.144Z,23.43
2019-01-11T07:18:20.679Z,20.17
2019-01-11T07:20:47.583Z,19.93
2019-01-11T07:23:14.362Z,26.10
2019-01-11T07:25:40.900Z,19.23
2019-01-11T07:28:13.544Z,21.57
2019-01-11T07:30:35.815Z,19.73
2019-01-11T07:33:02.344Z,19.87
2019-01-11T07:35:28.878Z,21.27
2019-01-11T07:37:55.422Z,22.93
2019-01-11T07:40:22.254Z,19.97
2019-01-11T07:42:48.791Z,18.53
2019-01-11T07:45:15.325Z,18.93
2019-01-11T07:47:42.168Z,23.10
2019-01-11T07:50:09.021Z,25.77
2019-01-11T07:52:36.017Z,21.07
2019-01-11T07:55:02.694Z,24.53
2019-01-11T07:57:29.532Z,23.73
2019-01-11T07:59:56.376Z,23.93
2019-01-11T08:02:23.222Z,23.83
2019-01-11T08:04:50.063Z,22.77
2019-01-11T08:07:16.597Z,24.63
2019-01-11T08:09:44.287Z,21.97
2019-01-11T08:12:10.994Z,32.27
2019-01-11T08:14:37.732Z,27.93
2019-01-11T08:17:04.575Z,25.77
2019-01-11T08:19:31.109Z,23.33
2019-01-11T08:21:57.644Z,24.27
2019-01-11T08:24:24.181Z,26.67
2019-01-11T08:26:51.021Z,28.33
2019-01-11T08:29:17.862Z,24.93
2019-01-11T08:31:44.701Z,24.03
2019-01-11T08:34:11.282Z,26.87
2019-01-11T08:36:38.089Z,27.47
2019-01-11T08:39:04.918Z,24.63
2019-01-11T08:41:31.471Z,38.27
2019-01-11T08:43:58.297Z,25.70
2019-01-11T08:46:25.140Z,27.17
2019-01-11T08:48:51.978Z,25.50
2019-01-11T08:51:18.820Z,26.73
2019-01-11T08:53:45.662Z,29.70
2019-01-11T08:56:12.506Z,26.57
2019-01-11T08:58:39.038Z,27.53
2019-01-11T09:01:05.882Z,28.57
2019-01-11T09:03:32.423Z,29.17
2019-01-11T09:05:59.260Z,26.10
2019-01-11T09:08:25.792Z,29.00
2019-01-11T09:10:52.632Z,24.13
2019-01-11T09:13:19.167Z,27.40
2019-01-11T09:15:45.700Z,28.70
2019-01-11T09:18:12.545Z,25.20
2019-01-11T09:20:39.083Z,30.90
2019-01-11T09:23:05.920Z,30.67
2019-01-11T09:25:32.483Z,33.07
2019-01-11T09:27:59.382Z,28.13
2019-01-11T09:30:26.482Z,37.40
2019-01-11T09:32:53.288Z,30.93
2019-01-11T09:35:20.126Z,30.43
2019-01-11T09:37:46.976Z,29.70
2019-01-11T09:40:14.767Z,32.97
2019-01-11T09:42:41.961Z,33.77
2019-01-11T09:45:09.032Z,31.03
2019-01-11T09:47:35.882Z,31.83
2019-01-11T09:50:02.716Z,29.40
2019-01-11T09:52:29.562Z,30.00
2019-01-11T09:54:56.398Z,29.57
2019-01-11T09:57:23.240Z,32.63
2019-01-11T09:59:50.095Z,29.10
2019-01-11T10:02:16.921Z,30.13
2019-01-11T10:04:43.762Z,29.73
2019-01-11T10:07:10.297Z,35.97
2019-01-11T10:09:37.154Z,34.30
2019-01-11T10:12:03.981Z,34.53
2019-01-11T10:14:30.828Z,42.53
2019-01-11T10:16:57.358Z,40.07
2019-01-11T10:19:24.198Z,34.90
2019-01-11T10:21:52.543Z,45.23
2019-01-11T10:24:19.420Z,45.80
2019-01-11T10:26:46.262Z,37.90
2019-01-11T10:29:13.100Z,36.27
2019-01-11T10:31:39.635Z,34.27
2019-01-11T10:34:06.477Z,36.47
2019-01-11T10:36:33.329Z,38.70
2019-01-11T10:38:59.832Z,37.33
2019-01-11T10:41:26.394Z,39.20
2019-01-11T10:43:52.925Z,38.47
2019-01-11T10:46:19.457Z,33.90
2019-01-11T10:48:45.993Z,34.70
2019-01-11T10:51:12.529Z,38.47
2019-01-11T10:53:39.370Z,40.93
2019-01-11T10:56:06.208Z,37.37
2019-01-11T10:58:33.049Z,32.17
2019-01-11T11:00:59.587Z,32.97
2019-01-11T11:03:26.428Z,36.37
2019-01-11T11:05:53.277Z,34.13
2019-01-11T11:08:19.803Z,34.20
2019-01-11T11:10:46.649Z,34.03
2019-01-11T11:13:13.181Z,31.87
2019-01-11T11:15:39.714Z,33.83
2019-01-11T11:18:06.556Z,32.80
2019-01-11T11:20:33.091Z,38.60
2019-01-11T11:22:59.938Z,34.57
2019-01-11T11:25:26.621Z,37.07
2019-01-11T11:27:53.307Z,36.03
2019-01-11T11:30:20.169Z,34.23
2019-01-11T11:32:47.437Z,33.53
2019-01-11T11:35:14.143Z,36.00
2019-01-11T11:37:40.982Z,35.40
2019-01-11T11:40:07.517Z,36.83
2019-01-11T11:42:34.074Z,43.80
2019-01-11T11:45:00.595Z,43.07
2019-01-11T11:47:27.119Z,34.10
2019-01-11T11:49:53.968Z,39.10
2019-01-11T11:52:20.497Z,42.13
2019-01-11T11:54:47.033Z,38.00
2019-01-11T11:57:13.874Z,37.07
2019-01-11T11:59:40.411Z,34.97
2019-01-11T12:02:07.250Z,37.00
2019-01-11T12:04:33.781Z,38.13
2019-01-11T12:07:00.632Z,36.37
2019-01-11T12:09:27.466Z,35.40
2019-01-11T12:11:54.050Z,39.60
2019-01-11T12:14:20.841Z,44.73
2019-01-11T12:16:47.377Z,46.90
2019-01-11T12:19:13.910Z,40.70
2019-01-11T12:21:40.447Z,44.57
2019-01-11T12:24:06.978Z,44.00
2019-01-11T12:26:33.518Z,39.60
2019-01-11T12:29:00.354Z,39.80
2019-01-11T12:31:26.890Z,43.77
2019-01-11T12:33:53.737Z,40.20
2019-01-11T12:36:20.573Z,36.63
2019-01-11T12:38:47.414Z,37.77
2019-01-11T12:41:14.257Z,37.93
2019-01-11T12:43:40.793Z,37.37
2019-01-11T12:46:07.326Z,34.83
2019-01-11T12:48:33.867Z,39.87
2019-01-11T12:51:00.701Z,36.07
2019-01-11T12:53:27.554Z,42.73
2019-01-11T12:55:54.078Z,43.20
2019-01-11T12:58:20.918Z,40.10
2019-01-11T13:00:47.762Z,43.93
2019-01-11T13:03:14.298Z,41.40
2019-01-11T13:05:41.136Z,42.23
2019-01-11T13:08:07.671Z,44.93
2019-01-11T13:10:34.210Z,40.90
2019-01-11T13:13:00.744Z,47.83
2019-01-11T13:15:27.295Z,44.73
2019-01-11T13:17:53.810Z,44.63
2019-01-11T13:20:20.346Z,43.93
2019-01-11T13:22:46.878Z,44.73
2019-01-11T13:25:13.514Z,38.57
2019-01-11T13:27:40.240Z,40.47
2019-01-11T13:30:07.096Z,42.67
2019-01-11T13:32:33.630Z,43.20
2019-01-11T13:35:00.479Z,43.87
2019-01-11T13:37:27.952Z,47.77
2019-01-11T13:39:54.469Z,46.07
2019-01-11T13:42:20.996Z,43.97
2019-01-11T13:44:47.837Z,47.87
2019-01-11T13:47:14.679Z,43.40
2019-01-11T13:49:41.524Z,42.70
2019-01-11T13:52:08.081Z,45.07
2019-01-11T13:54:34.590Z,45.70
2019-01-11T13:57:01.434Z,50.90
2019-01-11T13:59:27.969Z,44.27
2019-01-11T14:01:54.808Z,45.10
2019-01-11T14:04:21.344Z,42.23
2019-01-11T14:06:48.184Z,45.70
2019-01-11T14:09:14.723Z,43.47
2019-01-11T14:11:41.259Z,45.83
2019-01-11T14:14:08.097Z,45.67
2019-01-11T14:16:34.938Z,41.10
2019-01-11T14:19:01.786Z,41.90
2019-01-11T14:21:28.398Z,42.97
2019-01-11T14:23:55.159Z,49.20
2019-01-11T14:26:22.003Z,46.20
2019-01-11T14:28:48.839Z,44.67
2019-01-11T14:31:15.687Z,47.77
2019-01-11T14:33:42.215Z,48.97
2019-01-11T14:36:09.075Z,46.03
2019-01-11T14:38:35.596Z,45.43
2019-01-11T14:41:02.432Z,44.07
2019-01-11T14:43:29.274Z,43.97
2019-01-11T14:45:56.124Z,41.13
2019-01-11T14:48:22.958Z,40.13
2019-01-11T14:50:49.799Z,46.57
2019-01-11T14:53:16.366Z,42.07
2019-01-11T14:55:43.175Z,46.20
2019-01-11T14:58:09.716Z,44.87
2019-01-11T15:00:36.249Z,44.50
2019-01-11T15:03:02.785Z,41.77
2019-01-11T15:05:29.311Z,44.57
2019-01-11T15:07:56.153Z,44.63
2019-01-11T15:10:22.688Z,48.37
2019-01-11T15:12:49.225Z,45.80
2019-01-11T15:15:15.758Z,47.90
2019-01-11T15:17:42.302Z,43.17
2019-01-11T15:20:08.930Z,44.83
2019-01-11T15:22:35.668Z,46.57
2019-01-11T15:25:02.526Z,47.23
2019-01-11T15:27:29.045Z,46.40
2019-01-11T15:29:55.533Z,45.73
2019-01-11T15:32:22.420Z,47.17
2019-01-11T15:34:49.552Z,44.20
2019-01-11T15:37:16.413Z,41.63
2019-01-11T15:39:43.253Z,42.77
2019-01-11T15:42:09.798Z,47.83
2019-01-11T15:44:36.610Z,46.80
2019-01-11T15:47:03.162Z,48.60
2019-01-11T15:49:30.004Z,42.10
2019-01-11T15:51:56.846Z,47.63
2019-01-11T15:54:23.379Z,42.20
2019-01-11T15:56:50.235Z,42.27
2019-01-11T15:59:17.070Z,42.93
2019-01-11T16:01:43.606Z,43.37
2019-01-11T16:04:10.442Z,46.43
2019-01-11T16:06:36.974Z,43.20
2019-01-11T16:09:03.512Z,48.07
2019-01-11T16:11:30.359Z,44.73
2019-01-11T16:13:56.885Z,41.93
2019-01-11T16:16:23.424Z,42.27
2019-01-11T16:18:50.263Z,43.27
2019-01-11T16:21:16.795Z,39.87
2019-01-11T16:23:43.637Z,46.07
2019-01-11T16:26:10.480Z,45.07
2019-01-11T16:28:37.331Z,45.27
2019-01-11T16:31:04.166Z,45.33
2019-01-11T16:33:30.697Z,47.37
2019-01-11T16:35:57.231Z,41.40
2019-01-11T16:38:24.073Z,40.90
2019-01-11T16:40:51.018Z,42.37
2019-01-11T16:43:17.756Z,41.03
2019-01-11T16:45:44.291Z,38.97
2019-01-11T16:48:11.135Z,43.17
2019-01-11T16:50:37.668Z,42.00
2019-01-11T16:53:04.205Z,43.80
2019-01-11T16:55:31.042Z,43.30
2019-01-11T16:57:57.885Z,44.97
2019-01-11T17:00:24.726Z,41.40
2019-01-11T17:02:51.568Z,45.00
2019-01-11T17:05:18.120Z,40.67
2019-01-11T17:07:44.638Z,40.47
2019-01-11T17:10:11.171Z,41.57
2019-01-11T17:12:41.709Z,41.20
2019-01-11T17:15:06.085Z,43.67
2019-01-11T17:17:32.925Z,40.13
2019-01-11T17:19:59.770Z,42.80
2019-01-11T17:22:26.301Z,42.57
2019-01-11T17:24:53.143Z,38.97
2019-01-11T17:27:19.682Z,41.10
2019-01-11T17:29:47.193Z,41.47
2019-01-11T17:32:14.639Z,39.50
2019-01-11T17:34:41.434Z,42.23
2019-01-11T17:37:07.974Z,39.13
2019-01-11T17:39:34.810Z,41.50
2019-01-11T17:42:01.653Z,38.87
2019-01-11T17:44:28.187Z,40.07
2019-01-11T17:46:54.721Z,38.93
2019-01-11T17:49:21.563Z,41.20
2019-01-11T17:51:48.427Z,38.90
2019-01-11T17:54:14.939Z,44.27
2019-01-11T17:56:41.780Z,46.10
2019-01-11T17:59:08.330Z,40.90
2019-01-11T18:01:35.153Z,39.77
2019-01-11T18:04:01.689Z,43.70
2019-01-11T18:06:28.534Z,44.10
2019-01-11T18:08:55.372Z,41.23
2019-01-11T18:11:21.906Z,41.83
2019-01-11T18:13:48.747Z,41.87
2019-01-11T18:16:15.289Z,41.70
2019-01-11T18:18:42.124Z,42.10
2019-01-11T18:21:08.659Z,41.27
2019-01-11T18:23:35.297Z,42.40
2019-01-11T18:26:02.038Z,46.40
2019-01-11T18:28:28.879Z,40.90
2019-01-11T18:30:55.730Z,55.17
2019-01-11T18:33:22.234Z,56.80
2019-01-11T18:35:49.142Z,47.50
2019-01-11T18:38:16.082Z,53.20
2019-01-11T18:40:42.784Z,48.67
2019-01-11T18:43:09.315Z,46.97
2019-01-11T18:45:36.155Z,42.03
2019-01-11T18:48:02.692Z,44.07
2019-01-11T18:50:29.237Z,42.70
2019-01-11T18:52:56.066Z,41.37
2019-01-11T18:55:22.604Z,40.80
2019-01-11T18:57:49.444Z,39.23
2019-01-11T19:00:15.978Z,51.10
2019-01-11T19:02:42.549Z,43.40
2019-01-11T19:05:09.352Z,53.13
2019-01-11T19:07:35.950Z,54.73
2019-01-11T19:10:02.734Z,43.67
2019-01-11T19:12:29.569Z,50.87
2019-01-11T19:14:56.745Z,42.97
2019-01-11T19:17:23.559Z,50.97
2019-01-11T19:19:50.093Z,44.23
2019-01-11T19:22:16.936Z,40.20
2019-01-11T19:24:43.777Z,43.13
2019-01-11T19:27:10.619Z,46.27
2019-01-11T19:29:37.153Z,47.03
2019-01-11T19:32:04.030Z,44.37
2019-01-11T19:34:30.538Z,46.97
2019-01-11T19:36:57.376Z,43.57
2019-01-11T19:39:24.215Z,43.90
2019-01-11T19:41:50.751Z,43.10
2019-01-11T19:44:17.592Z,42.60
2019-01-11T19:46:44.168Z,40.37
2019-01-11T19:49:10.966Z,48.57
2019-01-11T19:51:37.503Z,37.57
2019-01-11T19:54:04.034Z,39.87
2019-01-11T19:56:30.572Z,41.20
2019-01-11T19:58:57.412Z,37.33
2019-01-11T20:01:24.302Z,44.17
2019-01-11T20:03:51.105Z,37.40
2019-01-11T20:06:17.958Z,35.07
2019-01-11T20:08:44.777Z,35.17
2019-01-11T20:11:11.319Z,36.27
2019-01-11T20:13:38.160Z,35.07
2019-01-11T20:16:04.693Z,37.23
2019-01-11T20:18:31.230Z,37.63
2019-01-11T20:20:57.757Z,35.17
2019-01-11T20:23:24.601Z,34.83
2019-01-11T20:25:51.440Z,32.10
2019-01-11T20:28:17.978Z,36.47
2019-01-11T20:30:44.512Z,34.13
2019-01-11T20:33:11.353Z,31.67
2019-01-11T20:35:38.195Z,32.37
2019-01-11T20:38:04.732Z,34.13
2019-01-11T20:40:31.266Z,29.90
2019-01-11T20:42:58.105Z,33.23
2019-01-11T20:45:24.950Z,30.37
2019-01-11T20:47:51.787Z,31.23
2019-01-11T20:50:18.631Z,35.73
2019-01-11T20:52:45.471Z,29.73
2019-01-11T20:55:12.011Z,28.77
2019-01-11T20:57:38.542Z,28.80
2019-01-11T21:00:05.387Z,31.03
2019-01-11T21:02:31.917Z,33.27
2019-01-11T21:04:58.452Z,28.43
2019-01-11T21:07:24.985Z,29.23
2019-01-11T21:09:51.828Z,26.37
2019-01-11T21:12:18.360Z,26.93
2019-01-11T21:14:44.903Z,29.73
2019-01-11T21:17:11.739Z,29.17
2019-01-11T21:19:38.271Z,30.40
2019-01-11T21:22:05.112Z,30.27
2019-01-11T21:24:31.646Z,26.00
2019-01-11T21:26:58.180Z,25.63
2019-01-11T21:29:25.023Z,24.80
2019-01-11T21:31:51.866Z,28.87
2019-01-11T21:34:18.399Z,26.63
2019-01-11T21:36:44.934Z,25.10
2019-01-11T21:39:11.468Z,23.90
2019-01-11T21:41:38.310Z,35.50
2019-01-11T21:44:04.846Z,33.80
2019-01-11T21:46:31.691Z,28.73
2019-01-11T21:48:58.246Z,28.57
2019-01-11T21:51:25.061Z,30.73
2019-01-11T21:53:55.685Z,27.37
2019-01-11T21:56:19.973Z,22.90
2019-01-11T21:58:46.565Z,24.40
2019-01-11T22:01:13.350Z,26.00
2019-01-11T22:03:40.192Z,25.77
2019-01-11T22:06:07.037Z,28.00
2019-01-11T22:08:33.874Z,22.70
2019-01-11T22:11:00.717Z,21.77
2019-01-11T22:13:27.254Z,28.13
2019-01-11T22:15:53.785Z,21.83
2019-01-11T22:18:20.627Z,20.27
2019-01-11T22:20:47.478Z,21.93
2019-01-11T22:23:14.310Z,23.37
2019-01-11T22:25:40.845Z,23.53
2019-01-11T22:28:07.385Z,21.43
2019-01-11T22:30:33.915Z,20.53
2019-01-11T22:33:00.758Z,22.17
2019-01-11T22:35:27.292Z,21.17
2019-01-11T22:37:54.134Z,18.60
2019-01-11T22:40:20.667Z,20.80
2019-01-11T22:42:47.509Z,20.23
2019-01-11T22:45:14.349Z,22.40
2019-01-11T22:47:41.258Z,20.00
2019-01-11T22:50:08.038Z,20.73
2019-01-11T22:52:34.875Z,19.30
2019-01-11T22:55:01.717Z,17.10
2019-01-11T22:57:28.262Z,16.30
2019-01-11T22:59:54.785Z,17.87
2019-01-11T23:02:21.324Z,17.70
2019-01-11T23:04:48.169Z,16.17
2019-01-11T23:07:15.002Z,16.03
2019-01-11T23:09:41.897Z,17.47
2019-01-11T23:12:08.688Z,16.83
2019-01-11T23:14:35.527Z,16.13
2019-01-11T23:17:02.269Z,17.53
2019-01-11T23:19:29.218Z,15.63
2019-01-11T23:21:56.053Z,15.97
2019-01-11T23:24:22.585Z,15.03
2019-01-11T23:26:49.430Z,14.60
2019-01-11T23:29:16.270Z,14.50
2019-01-11T23:31:43.114Z,13.70
2019-01-11T23:34:09.648Z,15.17
2019-01-11T23:36:36.488Z,15.77
2019-01-11T23:39:03.332Z,14.27
2019-01-11T23:41:29.873Z,14.07
2019-01-11T23:43:56.708Z,12.53
2019-01-11T23:46:23.547Z,13.33
2019-01-11T23:48:50.389Z,13.17
2019-01-11T23:51:17.231Z,13.50
2019-01-11T23:53:44.076Z,12.67
2019-01-11T23:56:10.918Z,11.37
2019-01-11T23:58:37.448Z,10.40
